sensor_id;sensor_type;location;lat;lon;timestamp;P1;durP1;ratioP1;P2;durP2;ratioP2
49728;SDS011;66333;49.798;10.968;2023-07-31T00:02:32;6.38;;;3.75;;
49728;SDS011;66333;49.798;10.968;2023-07-31T00:05:03;6.10;;;3.92;;
49728;SDS011;66333;49.798;10.968;2023-07-31T00:07:33;5.20;;;3.28;;
49728;SDS011;66333;49.798;10.968;2023-07-31T00:10:03;5.13;;;3.25;;
49728;SDS011;66333;49.798;10.968;2023-07-31T00:12:32;5.55;;;3.42;;
49728;SDS011;66333;49.798;10.968;2023-07-31T00:15:14;5.35;;;3.58;;
49728;SDS011;66333;49.798;10.968;2023-07-31T00:17:42;5.07;;;3.28;;
49728;SDS011;66333;49.798;10.968;2023-07-31T00:20:14;5.38;;;3.45;;
49728;SDS011;66333;49.798;10.968;2023-07-31T00:22:56;6.13;;;3.80;;
49728;SDS011;66333;49.798;10.968;2023-07-31T00:25:26;5.63;;;3.60;;
49728;SDS011;66333;49.798;10.968;2023-07-31T00:27:54;5.57;;;3.60;;
49728;SDS011;66333;49.798;10.968;2023-07-31T00:30:35;6.28;;;3.53;;
49728;SDS011;66333;49.798;10.968;2023-07-31T00:33:04;5.40;;;3.47;;
49728;SDS011;66333;49.798;10.968;2023-07-31T00:35:34;6.32;;;3.67;;
49728;SDS011;66333;49.798;10.968;2023-07-31T00:38:04;5.32;;;3.60;;
49728;SDS011;66333;49.798;10.968;2023-07-31T00:40:34;5.65;;;3.30;;
49728;SDS011;66333;49.798;10.968;2023-07-31T00:43:06;5.85;;;3.83;;
49728;SDS011;66333;49.798;10.968;2023-07-31T00:45:47;5.43;;;3.25;;
49728;SDS011;66333;49.798;10.968;2023-07-31T00:48:15;5.35;;;3.30;;
49728;SDS011;66333;49.798;10.968;2023-07-31T00:50:47;6.20;;;3.63;;
49728;SDS011;66333;49.798;10.968;2023-07-31T00:53:16;5.97;;;3.67;;
49728;SDS011;66333;49.798;10.968;2023-07-31T00:55:45;5.78;;;3.70;;
49728;SDS011;66333;49.798;10.968;2023-07-31T00:58:14;6.43;;;3.50;;
49728;SDS011;66333;49.798;10.968;2023-07-31T01:00:49;6.07;;;3.78;;
49728;SDS011;66333;49.798;10.968;2023-07-31T01:03:23;5.38;;;3.58;;
49728;SDS011;66333;49.798;10.968;2023-07-31T01:05:56;5.90;;;3.50;;
49728;SDS011;66333;49.798;10.968;2023-07-31T01:08:36;5.18;;;3.20;;
49728;SDS011;66333;49.798;10.968;2023-07-31T01:11:14;5.57;;;3.85;;
49728;SDS011;66333;49.798;10.968;2023-07-31T01:13:48;5.53;;;3.42;;
49728;SDS011;66333;49.798;10.968;2023-07-31T01:16:28;5.40;;;3.40;;
49728;SDS011;66333;49.798;10.968;2023-07-31T01:18:58;5.32;;;3.58;;
49728;SDS011;66333;49.798;10.968;2023-07-31T01:24:42;6.18;;;3.47;;
49728;SDS011;66333;49.798;10.968;2023-07-31T01:27:28;5.75;;;3.40;;
49728;SDS011;66333;49.798;10.968;2023-07-31T01:30:08;5.07;;;3.47;;
49728;SDS011;66333;49.798;10.968;2023-07-31T01:33:01;6.45;;;3.38;;
49728;SDS011;66333;49.798;10.968;2023-07-31T01:35:33;6.13;;;3.63;;
49728;SDS011;66333;49.798;10.968;2023-07-31T01:38:04;5.20;;;3.25;;
49728;SDS011;66333;49.798;10.968;2023-07-31T01:40:35;5.45;;;3.40;;
49728;SDS011;66333;49.798;10.968;2023-07-31T01:43:16;5.82;;;3.47;;
49728;SDS011;66333;49.798;10.968;2023-07-31T01:45:47;5.22;;;3.08;;
49728;SDS011;66333;49.798;10.968;2023-07-31T01:48:14;5.10;;;3.38;;
49728;SDS011;66333;49.798;10.968;2023-07-31T01:50:44;5.72;;;3.42;;
49728;SDS011;66333;49.798;10.968;2023-07-31T01:53:14;5.80;;;3.42;;
49728;SDS011;66333;49.798;10.968;2023-07-31T01:55:50;5.30;;;3.22;;
49728;SDS011;66333;49.798;10.968;2023-07-31T01:58:28;5.35;;;3.22;;
49728;SDS011;66333;49.798;10.968;2023-07-31T02:00:58;5.75;;;3.50;;
49728;SDS011;66333;49.798;10.968;2023-07-31T02:03:29;5.82;;;3.50;;
49728;SDS011;66333;49.798;10.968;2023-07-31T02:05:59;6.47;;;3.13;;
49728;SDS011;66333;49.798;10.968;2023-07-31T02:08:41;5.18;;;3.33;;
49728;SDS011;66333;49.798;10.968;2023-07-31T02:11:11;5.38;;;3.45;;
49728;SDS011;66333;49.798;10.968;2023-07-31T02:13:52;5.50;;;3.35;;
49728;SDS011;66333;49.798;10.968;2023-07-31T02:16:22;5.57;;;3.50;;
49728;SDS011;66333;49.798;10.968;2023-07-31T02:19:03;4.82;;;3.20;;
49728;SDS011;66333;49.798;10.968;2023-07-31T02:21:34;5.15;;;3.33;;
49728;SDS011;66333;49.798;10.968;2023-07-31T02:24:04;4.90;;;3.22;;
49728;SDS011;66333;49.798;10.968;2023-07-31T02:26:41;5.20;;;3.33;;
49728;SDS011;66333;49.798;10.968;2023-07-31T02:29:23;5.30;;;3.33;;
49728;SDS011;66333;49.798;10.968;2023-07-31T02:31:53;5.22;;;3.10;;
49728;SDS011;66333;49.798;10.968;2023-07-31T02:34:23;5.95;;;3.60;;
49728;SDS011;66333;49.798;10.968;2023-07-31T02:36:52;5.57;;;3.20;;
49728;SDS011;66333;49.798;10.968;2023-07-31T02:39:22;6.07;;;3.42;;
49728;SDS011;66333;49.798;10.968;2023-07-31T02:41:51;5.65;;;3.33;;
49728;SDS011;66333;49.798;10.968;2023-07-31T02:44:24;5.22;;;3.17;;
49728;SDS011;66333;49.798;10.968;2023-07-31T02:46:55;5.78;;;3.35;;
49728;SDS011;66333;49.798;10.968;2023-07-31T02:49:25;5.63;;;3.42;;
49728;SDS011;66333;49.798;10.968;2023-07-31T02:51:55;6.85;;;3.50;;
49728;SDS011;66333;49.798;10.968;2023-07-31T02:54:25;6.00;;;3.13;;
49728;SDS011;66333;49.798;10.968;2023-07-31T02:56:56;5.75;;;3.72;;
49728;SDS011;66333;49.798;10.968;2023-07-31T02:59:36;4.85;;;3.00;;
49728;SDS011;66333;49.798;10.968;2023-07-31T03:02:06;5.55;;;3.30;;
49728;SDS011;66333;49.798;10.968;2023-07-31T03:04:42;5.50;;;3.20;;
49728;SDS011;66333;49.798;10.968;2023-07-31T03:07:12;5.72;;;3.22;;
49728;SDS011;66333;49.798;10.968;2023-07-31T03:09:40;4.68;;;3.00;;
49728;SDS011;66333;49.798;10.968;2023-07-31T03:12:08;5.50;;;3.28;;
49728;SDS011;66333;49.798;10.968;2023-07-31T03:14:50;7.78;;;3.42;;
49728;SDS011;66333;49.798;10.968;2023-07-31T03:17:21;5.40;;;3.15;;
49728;SDS011;66333;49.798;10.968;2023-07-31T03:19:56;6.13;;;3.33;;
49728;SDS011;66333;49.798;10.968;2023-07-31T03:22:26;5.45;;;3.50;;
49728;SDS011;66333;49.798;10.968;2023-07-31T03:24:56;5.32;;;3.17;;
49728;SDS011;66333;49.798;10.968;2023-07-31T03:27:26;6.10;;;3.35;;
49728;SDS011;66333;49.798;10.968;2023-07-31T03:30:10;5.57;;;3.55;;
49728;SDS011;66333;49.798;10.968;2023-07-31T03:32:36;5.93;;;3.38;;
49728;SDS011;66333;49.798;10.968;2023-07-31T03:35:08;5.10;;;3.38;;
49728;SDS011;66333;49.798;10.968;2023-07-31T03:37:38;5.22;;;3.60;;
49728;SDS011;66333;49.798;10.968;2023-07-31T03:40:09;4.75;;;3.22;;
49728;SDS011;66333;49.798;10.968;2023-07-31T03:42:45;5.07;;;3.10;;
49728;SDS011;66333;49.798;10.968;2023-07-31T03:45:26;5.88;;;3.63;;
49728;SDS011;66333;49.798;10.968;2023-07-31T03:48:03;5.38;;;3.22;;
49728;SDS011;66333;49.798;10.968;2023-07-31T03:50:39;5.40;;;3.20;;
49728;SDS011;66333;49.798;10.968;2023-07-31T03:53:09;5.63;;;3.20;;
49728;SDS011;66333;49.798;10.968;2023-07-31T03:55:40;5.35;;;3.28;;
49728;SDS011;66333;49.798;10.968;2023-07-31T03:58:10;5.47;;;3.38;;
49728;SDS011;66333;49.798;10.968;2023-07-31T04:00:45;6.60;;;3.33;;
49728;SDS011;66333;49.798;10.968;2023-07-31T04:03:13;5.13;;;2.90;;
49728;SDS011;66333;49.798;10.968;2023-07-31T04:05:44;6.07;;;3.75;;
49728;SDS011;66333;49.798;10.968;2023-07-31T04:08:16;5.40;;;3.30;;
49728;SDS011;66333;49.798;10.968;2023-07-31T04:10:46;5.68;;;3.10;;
49728;SDS011;66333;49.798;10.968;2023-07-31T04:13:15;6.28;;;3.60;;
49728;SDS011;66333;49.798;10.968;2023-07-31T04:15:49;6.07;;;3.45;;
49728;SDS011;66333;49.798;10.968;2023-07-31T04:18:20;6.65;;;3.20;;
49728;SDS011;66333;49.798;10.968;2023-07-31T04:20:48;6.25;;;3.50;;
49728;SDS011;66333;49.798;10.968;2023-07-31T04:23:18;6.13;;;3.78;;
49728;SDS011;66333;49.798;10.968;2023-07-31T04:25:47;4.93;;;3.08;;
49728;SDS011;66333;49.798;10.968;2023-07-31T04:28:15;5.68;;;3.35;;
49728;SDS011;66333;49.798;10.968;2023-07-31T04:30:44;5.45;;;3.42;;
49728;SDS011;66333;49.798;10.968;2023-07-31T04:33:17;5.53;;;3.45;;
49728;SDS011;66333;49.798;10.968;2023-07-31T04:35:50;6.30;;;3.40;;
49728;SDS011;66333;49.798;10.968;2023-07-31T04:38:24;6.95;;;3.20;;
49728;SDS011;66333;49.798;10.968;2023-07-31T04:41:05;5.55;;;3.40;;
49728;SDS011;66333;49.798;10.968;2023-07-31T04:43:35;6.22;;;3.50;;
49728;SDS011;66333;49.798;10.968;2023-07-31T04:46:05;5.38;;;3.30;;
49728;SDS011;66333;49.798;10.968;2023-07-31T04:48:54;4.95;;;3.00;;
49728;SDS011;66333;49.798;10.968;2023-07-31T04:51:24;5.15;;;3.38;;
49728;SDS011;66333;49.798;10.968;2023-07-31T04:53:52;5.18;;;3.22;;
49728;SDS011;66333;49.798;10.968;2023-07-31T04:56:22;5.40;;;3.28;;
49728;SDS011;66333;49.798;10.968;2023-07-31T04:58:52;4.90;;;3.45;;
49728;SDS011;66333;49.798;10.968;2023-07-31T05:01:24;5.10;;;3.13;;
49728;SDS011;66333;49.798;10.968;2023-07-31T05:03:57;5.07;;;3.22;;
49728;SDS011;66333;49.798;10.968;2023-07-31T05:06:24;5.65;;;3.20;;
49728;SDS011;66333;49.798;10.968;2023-07-31T05:08:54;6.20;;;3.33;;
49728;SDS011;66333;49.798;10.968;2023-07-31T05:11:24;6.18;;;3.38;;
49728;SDS011;66333;49.798;10.968;2023-07-31T05:13:54;5.40;;;3.42;;
49728;SDS011;66333;49.798;10.968;2023-07-31T05:16:24;5.63;;;3.15;;
49728;SDS011;66333;49.798;10.968;2023-07-31T05:18:58;5.55;;;3.08;;
49728;SDS011;66333;49.798;10.968;2023-07-31T05:21:26;4.88;;;2.83;;
49728;SDS011;66333;49.798;10.968;2023-07-31T05:23:56;6.10;;;3.38;;
49728;SDS011;66333;49.798;10.968;2023-07-31T05:26:26;4.95;;;3.13;;
49728;SDS011;66333;49.798;10.968;2023-07-31T05:28:56;5.45;;;3.15;;
49728;SDS011;66333;49.798;10.968;2023-07-31T05:31:27;6.03;;;3.20;;
49728;SDS011;66333;49.798;10.968;2023-07-31T05:34:03;5.05;;;3.00;;
49728;SDS011;66333;49.798;10.968;2023-07-31T05:36:33;5.28;;;3.47;;
49728;SDS011;66333;49.798;10.968;2023-07-31T05:39:03;5.95;;;3.38;;
49728;SDS011;66333;49.798;10.968;2023-07-31T05:41:35;4.80;;;3.42;;
49728;SDS011;66333;49.798;10.968;2023-07-31T05:44:11;5.55;;;3.25;;
49728;SDS011;66333;49.798;10.968;2023-07-31T05:46:41;5.13;;;3.30;;
49728;SDS011;66333;49.798;10.968;2023-07-31T05:49:23;4.38;;;2.75;;
49728;SDS011;66333;49.798;10.968;2023-07-31T05:51:51;5.10;;;3.00;;
49728;SDS011;66333;49.798;10.968;2023-07-31T05:54:21;5.20;;;3.17;;
49728;SDS011;66333;49.798;10.968;2023-07-31T05:56:51;5.43;;;3.35;;
49728;SDS011;66333;49.798;10.968;2023-07-31T05:59:19;5.45;;;2.92;;
49728;SDS011;66333;49.798;10.968;2023-07-31T06:01:49;5.65;;;3.33;;
49728;SDS011;66333;49.798;10.968;2023-07-31T06:04:23;5.97;;;3.97;;
49728;SDS011;66333;49.798;10.968;2023-07-31T06:09:23;5.55;;;3.15;;
49728;SDS011;66333;49.798;10.968;2023-07-31T06:11:54;5.45;;;3.30;;
49728;SDS011;66333;49.798;10.968;2023-07-31T06:14:24;5.60;;;3.30;;
49728;SDS011;66333;49.798;10.968;2023-07-31T06:16:54;5.90;;;3.13;;
49728;SDS011;66333;49.798;10.968;2023-07-31T06:19:35;5.05;;;3.10;;
49728;SDS011;66333;49.798;10.968;2023-07-31T06:22:03;4.90;;;2.88;;
49728;SDS011;66333;49.798;10.968;2023-07-31T06:24:33;5.05;;;3.10;;
49728;SDS011;66333;49.798;10.968;2023-07-31T06:27:04;5.75;;;3.30;;
49728;SDS011;66333;49.798;10.968;2023-07-31T06:29:34;5.90;;;3.45;;
49728;SDS011;66333;49.798;10.968;2023-07-31T06:32:05;4.95;;;3.03;;
49728;SDS011;66333;49.798;10.968;2023-07-31T06:34:36;5.20;;;3.38;;
49728;SDS011;66333;49.798;10.968;2023-07-31T06:37:07;5.13;;;3.10;;
49728;SDS011;66333;49.798;10.968;2023-07-31T06:39:37;5.18;;;3.20;;
49728;SDS011;66333;49.798;10.968;2023-07-31T06:42:06;5.25;;;3.45;;
49728;SDS011;66333;49.798;10.968;2023-07-31T06:44:34;5.68;;;3.47;;
49728;SDS011;66333;49.798;10.968;2023-07-31T06:47:04;4.80;;;3.08;;
49728;SDS011;66333;49.798;10.968;2023-07-31T06:50:00;5.90;;;3.45;;
49728;SDS011;66333;49.798;10.968;2023-07-31T06:52:29;5.82;;;3.58;;
49728;SDS011;66333;49.798;10.968;2023-07-31T06:55:03;4.70;;;3.03;;
49728;SDS011;66333;49.798;10.968;2023-07-31T06:57:39;5.47;;;3.03;;
49728;SDS011;66333;49.798;10.968;2023-07-31T07:00:10;6.43;;;3.33;;
49728;SDS011;66333;49.798;10.968;2023-07-31T07:02:46;4.97;;;3.08;;
49728;SDS011;66333;49.798;10.968;2023-07-31T07:05:17;4.90;;;3.00;;
49728;SDS011;66333;49.798;10.968;2023-07-31T07:07:49;4.60;;;2.75;;
49728;SDS011;66333;49.798;10.968;2023-07-31T07:10:20;4.88;;;3.00;;
49728;SDS011;66333;49.798;10.968;2023-07-31T07:12:51;5.03;;;3.50;;
49728;SDS011;66333;49.798;10.968;2023-07-31T07:15:19;5.38;;;3.38;;
49728;SDS011;66333;49.798;10.968;2023-07-31T07:17:49;5.30;;;3.00;;
49728;SDS011;66333;49.798;10.968;2023-07-31T07:20:21;5.72;;;3.22;;
49728;SDS011;66333;49.798;10.968;2023-07-31T07:22:57;5.18;;;3.17;;
49728;SDS011;66333;49.798;10.968;2023-07-31T07:25:27;5.15;;;3.28;;
49728;SDS011;66333;49.798;10.968;2023-07-31T07:27:57;5.47;;;3.55;;
49728;SDS011;66333;49.798;10.968;2023-07-31T07:30:27;5.35;;;3.42;;
49728;SDS011;66333;49.798;10.968;2023-07-31T07:32:55;5.65;;;3.30;;
49728;SDS011;66333;49.798;10.968;2023-07-31T07:35:27;5.05;;;3.13;;
49728;SDS011;66333;49.798;10.968;2023-07-31T07:37:53;5.30;;;3.22;;
49728;SDS011;66333;49.798;10.968;2023-07-31T07:40:23;6.18;;;3.30;;
49728;SDS011;66333;49.798;10.968;2023-07-31T07:42:53;5.28;;;3.17;;
49728;SDS011;66333;49.798;10.968;2023-07-31T07:45:21;5.43;;;3.25;;
49728;SDS011;66333;49.798;10.968;2023-07-31T07:47:51;5.63;;;3.65;;
49728;SDS011;66333;49.798;10.968;2023-07-31T07:50:22;5.40;;;3.35;;
49728;SDS011;66333;49.798;10.968;2023-07-31T07:52:53;4.82;;;3.25;;
49728;SDS011;66333;49.798;10.968;2023-07-31T07:55:23;5.15;;;3.10;;
49728;SDS011;66333;49.798;10.968;2023-07-31T07:57:53;4.47;;;2.85;;
49728;SDS011;66333;49.798;10.968;2023-07-31T08:00:23;5.85;;;3.30;;
49728;SDS011;66333;49.798;10.968;2023-07-31T08:02:54;5.10;;;3.25;;
49728;SDS011;66333;49.798;10.968;2023-07-31T08:05:26;4.88;;;3.22;;
49728;SDS011;66333;49.798;10.968;2023-07-31T08:07:53;5.45;;;3.55;;
49728;SDS011;66333;49.798;10.968;2023-07-31T08:10:23;4.82;;;3.00;;
49728;SDS011;66333;49.798;10.968;2023-07-31T08:12:53;5.57;;;3.50;;
49728;SDS011;66333;49.798;10.968;2023-07-31T08:15:29;5.57;;;3.42;;
49728;SDS011;66333;49.798;10.968;2023-07-31T08:17:59;5.03;;;3.10;;
49728;SDS011;66333;49.798;10.968;2023-07-31T08:23:09;5.40;;;3.35;;
49728;SDS011;66333;49.798;10.968;2023-07-31T08:25:39;4.85;;;3.30;;
49728;SDS011;66333;49.798;10.968;2023-07-31T08:28:08;4.85;;;3.35;;
49728;SDS011;66333;49.798;10.968;2023-07-31T08:30:37;4.80;;;3.25;;
49728;SDS011;66333;49.798;10.968;2023-07-31T08:33:06;5.10;;;3.22;;
49728;SDS011;66333;49.798;10.968;2023-07-31T08:35:46;5.18;;;3.00;;
49728;SDS011;66333;49.798;10.968;2023-07-31T08:38:16;5.57;;;3.15;;
49728;SDS011;66333;49.798;10.968;2023-07-31T08:40:47;5.03;;;2.90;;
49728;SDS011;66333;49.798;10.968;2023-07-31T08:43:15;5.65;;;3.05;;
49728;SDS011;66333;49.798;10.968;2023-07-31T08:45:45;5.30;;;3.30;;
49728;SDS011;66333;49.798;10.968;2023-07-31T08:48:15;6.00;;;3.10;;
49728;SDS011;66333;49.798;10.968;2023-07-31T08:51:04;5.63;;;3.15;;
49728;SDS011;66333;49.798;10.968;2023-07-31T08:53:31;4.80;;;3.08;;
49728;SDS011;66333;49.798;10.968;2023-07-31T08:56:13;5.10;;;3.20;;
49728;SDS011;66333;49.798;10.968;2023-07-31T08:58:44;5.40;;;3.50;;
49728;SDS011;66333;49.798;10.968;2023-07-31T09:01:27;4.88;;;3.22;;
49728;SDS011;66333;49.798;10.968;2023-07-31T09:04:00;5.00;;;2.72;;
49728;SDS011;66333;49.798;10.968;2023-07-31T09:06:38;5.57;;;3.17;;
49728;SDS011;66333;49.798;10.968;2023-07-31T09:09:09;4.93;;;3.30;;
49728;SDS011;66333;49.798;10.968;2023-07-31T09:11:39;4.90;;;3.20;;
49728;SDS011;66333;49.798;10.968;2023-07-31T09:14:09;5.60;;;3.42;;
49728;SDS011;66333;49.798;10.968;2023-07-31T09:16:51;5.20;;;3.33;;
49728;SDS011;66333;49.798;10.968;2023-07-31T09:19:26;5.03;;;3.30;;
49728;SDS011;66333;49.798;10.968;2023-07-31T09:21:58;5.05;;;3.15;;
49728;SDS011;66333;49.798;10.968;2023-07-31T09:24:28;5.38;;;3.13;;
49728;SDS011;66333;49.798;10.968;2023-07-31T09:27:05;5.60;;;3.30;;
49728;SDS011;66333;49.798;10.968;2023-07-31T09:29:36;5.88;;;3.55;;
49728;SDS011;66333;49.798;10.968;2023-07-31T09:32:06;4.88;;;3.15;;
49728;SDS011;66333;49.798;10.968;2023-07-31T09:37:57;5.50;;;3.35;;
49728;SDS011;66333;49.798;10.968;2023-07-31T09:40:28;5.88;;;3.60;;
49728;SDS011;66333;49.798;10.968;2023-07-31T09:42:59;5.90;;;3.22;;
49728;SDS011;66333;49.798;10.968;2023-07-31T09:45:42;6.65;;;3.10;;
49728;SDS011;66333;49.798;10.968;2023-07-31T09:48:30;5.20;;;3.58;;
49728;SDS011;66333;49.798;10.968;2023-07-31T09:51:00;5.22;;;3.17;;
49728;SDS011;66333;49.798;10.968;2023-07-31T09:53:39;4.85;;;3.30;;
49728;SDS011;66333;49.798;10.968;2023-07-31T09:56:09;4.95;;;3.00;;
49728;SDS011;66333;49.798;10.968;2023-07-31T09:58:39;4.72;;;3.10;;
49728;SDS011;66333;49.798;10.968;2023-07-31T10:01:10;5.53;;;3.22;;
49728;SDS011;66333;49.798;10.968;2023-07-31T10:03:40;5.68;;;3.28;;
49728;SDS011;66333;49.798;10.968;2023-07-31T10:06:14;6.03;;;3.72;;
49728;SDS011;66333;49.798;10.968;2023-07-31T10:11:38;4.90;;;3.03;;
49728;SDS011;66333;49.798;10.968;2023-07-31T10:14:10;4.82;;;3.40;;
49728;SDS011;66333;49.798;10.968;2023-07-31T10:16:40;5.78;;;3.55;;
49728;SDS011;66333;49.798;10.968;2023-07-31T10:19:09;5.18;;;3.28;;
49728;SDS011;66333;49.798;10.968;2023-07-31T10:21:40;4.43;;;2.92;;
49728;SDS011;66333;49.798;10.968;2023-07-31T10:24:22;5.43;;;3.05;;
49728;SDS011;66333;49.798;10.968;2023-07-31T10:26:52;5.13;;;3.28;;
49728;SDS011;66333;49.798;10.968;2023-07-31T10:29:28;6.35;;;3.78;;
49728;SDS011;66333;49.798;10.968;2023-07-31T10:32:00;5.88;;;3.47;;
49728;SDS011;66333;49.798;10.968;2023-07-31T10:34:38;5.25;;;3.15;;
49728;SDS011;66333;49.798;10.968;2023-07-31T10:37:24;5.57;;;3.40;;
49728;SDS011;66333;49.798;10.968;2023-07-31T10:40:04;5.05;;;3.20;;
49728;SDS011;66333;49.798;10.968;2023-07-31T10:42:44;5.95;;;3.95;;
49728;SDS011;66333;49.798;10.968;2023-07-31T10:45:23;5.43;;;3.42;;
49728;SDS011;66333;49.798;10.968;2023-07-31T10:47:58;5.25;;;2.60;;
49728;SDS011;66333;49.798;10.968;2023-07-31T10:50:30;5.90;;;3.28;;
49728;SDS011;66333;49.798;10.968;2023-07-31T10:53:07;5.78;;;3.58;;
49728;SDS011;66333;49.798;10.968;2023-07-31T10:55:56;5.80;;;3.30;;
49728;SDS011;66333;49.798;10.968;2023-07-31T10:58:27;6.13;;;3.33;;
49728;SDS011;66333;49.798;10.968;2023-07-31T11:00:58;5.95;;;3.15;;
49728;SDS011;66333;49.798;10.968;2023-07-31T11:06:14;4.88;;;3.08;;
49728;SDS011;66333;49.798;10.968;2023-07-31T11:08:43;7.28;;;3.50;;
49728;SDS011;66333;49.798;10.968;2023-07-31T11:11:25;5.68;;;3.25;;
49728;SDS011;66333;49.798;10.968;2023-07-31T11:13:55;5.88;;;3.15;;
49728;SDS011;66333;49.798;10.968;2023-07-31T11:16:26;5.05;;;3.20;;
49728;SDS011;66333;49.798;10.968;2023-07-31T11:18:53;5.88;;;3.30;;
49728;SDS011;66333;49.798;10.968;2023-07-31T11:21:24;5.57;;;3.20;;
49728;SDS011;66333;49.798;10.968;2023-07-31T11:23:51;5.30;;;3.22;;
49728;SDS011;66333;49.798;10.968;2023-07-31T11:26:28;7.55;;;3.33;;
49728;SDS011;66333;49.798;10.968;2023-07-31T11:28:58;6.15;;;2.55;;
49728;SDS011;66333;49.798;10.968;2023-07-31T11:31:29;6.20;;;2.80;;
49728;SDS011;66333;49.798;10.968;2023-07-31T11:34:05;10.38;;;2.92;;
49728;SDS011;66333;49.798;10.968;2023-07-31T11:36:36;9.82;;;3.05;;
49728;SDS011;66333;49.798;10.968;2023-07-31T11:39:07;6.28;;;2.50;;
49728;SDS011;66333;49.798;10.968;2023-07-31T11:41:55;6.88;;;2.67;;
49728;SDS011;66333;49.798;10.968;2023-07-31T11:44:37;8.45;;;3.03;;
49728;SDS011;66333;49.798;10.968;2023-07-31T11:47:11;5.60;;;2.30;;
49728;SDS011;66333;49.798;10.968;2023-07-31T11:49:50;6.78;;;2.78;;
49728;SDS011;66333;49.798;10.968;2023-07-31T11:52:20;6.85;;;2.40;;
49728;SDS011;66333;49.798;10.968;2023-07-31T11:54:51;8.80;;;3.17;;
49728;SDS011;66333;49.798;10.968;2023-07-31T11:57:33;5.72;;;2.47;;
49728;SDS011;66333;49.798;10.968;2023-07-31T12:00:02;6.75;;;2.58;;
49728;SDS011;66333;49.798;10.968;2023-07-31T12:02:40;6.78;;;2.60;;
49728;SDS011;66333;49.798;10.968;2023-07-31T12:05:11;8.48;;;2.70;;
49728;SDS011;66333;49.798;10.968;2023-07-31T12:07:46;6.97;;;2.58;;
49728;SDS011;66333;49.798;10.968;2023-07-31T12:10:22;9.57;;;2.92;;
49728;SDS011;66333;49.798;10.968;2023-07-31T12:13:10;6.60;;;3.03;;
49728;SDS011;66333;49.798;10.968;2023-07-31T12:18:21;6.93;;;2.92;;
49728;SDS011;66333;49.798;10.968;2023-07-31T12:20:53;7.65;;;2.83;;
49728;SDS011;66333;49.798;10.968;2023-07-31T12:23:25;7.53;;;2.63;;
49728;SDS011;66333;49.798;10.968;2023-07-31T12:26:03;7.95;;;2.80;;
49728;SDS011;66333;49.798;10.968;2023-07-31T12:28:44;6.70;;;2.30;;
49728;SDS011;66333;49.798;10.968;2023-07-31T12:31:12;8.32;;;2.75;;
49728;SDS011;66333;49.798;10.968;2023-07-31T12:33:49;5.55;;;2.50;;
49728;SDS011;66333;49.798;10.968;2023-07-31T12:36:31;5.57;;;2.38;;
49728;SDS011;66333;49.798;10.968;2023-07-31T12:39:02;6.60;;;2.65;;
49728;SDS011;66333;49.798;10.968;2023-07-31T12:41:33;6.20;;;2.78;;
49728;SDS011;66333;49.798;10.968;2023-07-31T12:44:08;8.18;;;2.40;;
49728;SDS011;66333;49.798;10.968;2023-07-31T12:49:06;6.63;;;2.55;;
49728;SDS011;66333;49.798;10.968;2023-07-31T12:51:34;7.00;;;2.70;;
49728;SDS011;66333;49.798;10.968;2023-07-31T12:54:05;6.75;;;2.60;;
49728;SDS011;66333;49.798;10.968;2023-07-31T12:56:34;6.07;;;2.50;;
49728;SDS011;66333;49.798;10.968;2023-07-31T12:59:07;6.80;;;2.60;;
49728;SDS011;66333;49.798;10.968;2023-07-31T13:01:37;6.35;;;2.40;;
49728;SDS011;66333;49.798;10.968;2023-07-31T13:04:15;6.18;;;2.83;;
49728;SDS011;66333;49.798;10.968;2023-07-31T13:06:43;5.80;;;2.42;;
49728;SDS011;66333;49.798;10.968;2023-07-31T13:09:11;8.10;;;3.17;;
49728;SDS011;66333;49.798;10.968;2023-07-31T13:11:45;8.25;;;2.58;;
49728;SDS011;66333;49.798;10.968;2023-07-31T13:14:26;6.63;;;2.83;;
49728;SDS011;66333;49.798;10.968;2023-07-31T13:16:56;5.15;;;2.40;;
49728;SDS011;66333;49.798;10.968;2023-07-31T13:19:25;9.07;;;2.70;;
49728;SDS011;66333;49.798;10.968;2023-07-31T13:21:55;8.70;;;3.10;;
49728;SDS011;66333;49.798;10.968;2023-07-31T13:24:26;10.82;;;3.00;;
49728;SDS011;66333;49.798;10.968;2023-07-31T13:26:56;8.38;;;3.25;;
49728;SDS011;66333;49.798;10.968;2023-07-31T13:29:32;13.40;;;3.83;;
49728;SDS011;66333;49.798;10.968;2023-07-31T13:32:05;8.32;;;3.03;;
49728;SDS011;66333;49.798;10.968;2023-07-31T13:34:36;8.52;;;2.83;;
49728;SDS011;66333;49.798;10.968;2023-07-31T13:37:06;9.02;;;3.47;;
49728;SDS011;66333;49.798;10.968;2023-07-31T13:39:36;9.50;;;3.40;;
49728;SDS011;66333;49.798;10.968;2023-07-31T13:42:06;9.68;;;3.40;;
49728;SDS011;66333;49.798;10.968;2023-07-31T13:44:56;9.00;;;2.92;;
49728;SDS011;66333;49.798;10.968;2023-07-31T13:47:26;6.78;;;3.05;;
49728;SDS011;66333;49.798;10.968;2023-07-31T13:49:54;6.50;;;2.85;;
49728;SDS011;66333;49.798;10.968;2023-07-31T13:52:24;7.55;;;3.28;;
49728;SDS011;66333;49.798;10.968;2023-07-31T13:54:54;5.78;;;2.67;;
49728;SDS011;66333;49.798;10.968;2023-07-31T13:57:25;5.70;;;2.70;;
49728;SDS011;66333;49.798;10.968;2023-07-31T14:00:08;7.20;;;3.17;;
49728;SDS011;66333;49.798;10.968;2023-07-31T14:02:38;8.35;;;3.30;;
49728;SDS011;66333;49.798;10.968;2023-07-31T14:05:08;7.00;;;3.10;;
49728;SDS011;66333;49.798;10.968;2023-07-31T14:07:38;7.00;;;2.83;;
49728;SDS011;66333;49.798;10.968;2023-07-31T14:10:08;7.30;;;2.53;;
49728;SDS011;66333;49.798;10.968;2023-07-31T14:12:39;5.70;;;2.70;;
49728;SDS011;66333;49.798;10.968;2023-07-31T14:15:15;6.53;;;2.80;;
49728;SDS011;66333;49.798;10.968;2023-07-31T14:17:45;5.22;;;2.75;;
49728;SDS011;66333;49.798;10.968;2023-07-31T14:20:15;7.45;;;3.20;;
49728;SDS011;66333;49.798;10.968;2023-07-31T14:22:41;6.30;;;3.20;;
49728;SDS011;66333;49.798;10.968;2023-07-31T14:25:13;8.82;;;3.20;;
49728;SDS011;66333;49.798;10.968;2023-07-31T14:27:43;8.07;;;3.20;;
49728;SDS011;66333;49.798;10.968;2023-07-31T14:30:18;9.90;;;3.40;;
49728;SDS011;66333;49.798;10.968;2023-07-31T14:32:46;13.10;;;3.38;;
49728;SDS011;66333;49.798;10.968;2023-07-31T14:35:16;17.65;;;4.03;;
49728;SDS011;66333;49.798;10.968;2023-07-31T14:37:46;18.85;;;3.35;;
49728;SDS011;66333;49.798;10.968;2023-07-31T14:40:15;12.27;;;3.45;;
49728;SDS011;66333;49.798;10.968;2023-07-31T14:42:44;12.63;;;3.55;;
49728;SDS011;66333;49.798;10.968;2023-07-31T14:45:27;15.30;;;3.80;;
49728;SDS011;66333;49.798;10.968;2023-07-31T14:47:57;10.02;;;3.42;;
49728;SDS011;66333;49.798;10.968;2023-07-31T14:50:25;15.32;;;3.38;;
49728;SDS011;66333;49.798;10.968;2023-07-31T14:52:55;14.40;;;3.50;;
49728;SDS011;66333;49.798;10.968;2023-07-31T14:55:26;10.52;;;3.10;;
49728;SDS011;66333;49.798;10.968;2023-07-31T14:57:55;9.10;;;3.00;;
49728;SDS011;66333;49.798;10.968;2023-07-31T15:00:37;8.80;;;3.15;;
49728;SDS011;66333;49.798;10.968;2023-07-31T15:03:07;7.68;;;2.92;;
49728;SDS011;66333;49.798;10.968;2023-07-31T15:05:35;8.15;;;3.15;;
49728;SDS011;66333;49.798;10.968;2023-07-31T15:08:05;10.23;;;3.33;;
49728;SDS011;66333;49.798;10.968;2023-07-31T15:10:35;9.35;;;2.78;;
49728;SDS011;66333;49.798;10.968;2023-07-31T15:13:06;9.02;;;3.10;;
49728;SDS011;66333;49.798;10.968;2023-07-31T15:15:47;9.02;;;3.45;;
49728;SDS011;66333;49.798;10.968;2023-07-31T15:18:24;8.55;;;3.20;;
49728;SDS011;66333;49.798;10.968;2023-07-31T15:23:23;7.68;;;3.45;;
49728;SDS011;66333;49.798;10.968;2023-07-31T15:25:53;7.15;;;3.45;;
49728;SDS011;66333;49.798;10.968;2023-07-31T15:28:24;6.97;;;3.05;;
49728;SDS011;66333;49.798;10.968;2023-07-31T15:30:59;7.43;;;3.13;;